sensor_id;sensor_type;location;lat;lon;timestamp;pressure;altitude;pressure_sealevel;temperature
48894;BMP280;34710;35.798;139.446;2022-11-25T00:01:38;101222.70;;;27.40
48894;BMP280;34710;35.798;139.446;2022-11-25T00:04:08;101221.80;;;27.67
48894;BMP280;34710;35.798;139.446;2022-11-25T00:06:37;101224.78;;;27.54
48894;BMP280;34710;35.798;139.446;2022-11-25T00:09:09;101222.67;;;27.29
48894;BMP280;34710;35.798;139.446;2022-11-25T00:11:40;101226.69;;;27.63
48894;BMP280;34710;35.798;139.446;2022-11-25T00:14:13;101225.73;;;28.16
48894;BMP280;34710;35.798;139.446;2022-11-25T00:16:43;101223.77;;;28.39
48894;BMP280;34710;35.798;139.446;2022-11-25T00:19:13;101224.55;;;28.44
48894;BMP280;34710;35.798;139.446;2022-11-25T00:21:42;101225.61;;;29.06
48894;BMP280;34710;35.798;139.446;2022-11-25T00:24:13;101221.93;;;29.69
48894;BMP280;34710;35.798;139.446;2022-11-25T00:26:43;101224.28;;;30.07
48894;BMP280;34710;35.798;139.446;2022-11-25T00:29:13;101228.59;;;30.15
48894;BMP280;34710;35.798;139.446;2022-11-25T00:31:42;101228.25;;;31.12
48894;BMP280;34710;35.798;139.446;2022-11-25T00:34:13;101226.62;;;31.06
48894;BMP280;34710;35.798;139.446;2022-11-25T00:36:42;101232.67;;;31.45
48894;BMP280;34710;35.798;139.446;2022-11-25T00:39:12;101233.66;;;31.79
48894;BMP280;34710;35.798;139.446;2022-11-25T00:41:41;101230.02;;;32.32
48894;BMP280;34710;35.798;139.446;2022-11-25T00:44:12;101234.43;;;32.04
48894;BMP280;34710;35.798;139.446;2022-11-25T00:46:42;101240.06;;;32.55
48894;BMP280;34710;35.798;139.446;2022-11-25T00:49:11;101241.86;;;32.79
48894;BMP280;34710;35.798;139.446;2022-11-25T00:51:40;101238.50;;;33.75
48894;BMP280;34710;35.798;139.446;2022-11-25T00:54:10;101236.55;;;34.09
48894;BMP280;34710;35.798;139.446;2022-11-25T00:56:39;101230.50;;;33.90
48894;BMP280;34710;35.798;139.446;2022-11-25T00:59:09;101226.00;;;34.02
48894;BMP280;34710;35.798;139.446;2022-11-25T01:01:38;101225.40;;;34.07
48894;BMP280;34710;35.798;139.446;2022-11-25T01:04:08;101225.49;;;34.01
48894;BMP280;34710;35.798;139.446;2022-11-25T01:06:38;101227.87;;;34.25
48894;BMP280;34710;35.798;139.446;2022-11-25T01:09:08;101229.24;;;34.23
48894;BMP280;34710;35.798;139.446;2022-11-25T01:11:38;101229.34;;;34.68
48894;BMP280;34710;35.798;139.446;2022-11-25T01:14:08;101225.26;;;35.33
48894;BMP280;34710;35.798;139.446;2022-11-25T01:16:37;101220.08;;;35.25
48894;BMP280;34710;35.798;139.446;2022-11-25T01:19:07;101219.91;;;35.24
48894;BMP280;34710;35.798;139.446;2022-11-25T01:21:36;101219.56;;;35.85
48894;BMP280;34710;35.798;139.446;2022-11-25T01:24:06;101218.80;;;36.21
48894;BMP280;34710;35.798;139.446;2022-11-25T01:26:36;101215.39;;;36.13
48894;BMP280;34710;35.798;139.446;2022-11-25T01:29:06;101208.93;;;36.61
48894;BMP280;34710;35.798;139.446;2022-11-25T01:31:36;101211.51;;;36.43
48894;BMP280;34710;35.798;139.446;2022-11-25T01:34:10;101212.50;;;35.54
48894;BMP280;34710;35.798;139.446;2022-11-25T01:36:41;101204.53;;;36.15
48894;BMP280;34710;35.798;139.446;2022-11-25T01:39:15;101202.86;;;36.40
48894;BMP280;34710;35.798;139.446;2022-11-25T01:41:46;101197.93;;;36.57
48894;BMP280;34710;35.798;139.446;2022-11-25T01:44:17;101196.99;;;36.10
48894;BMP280;34710;35.798;139.446;2022-11-25T01:46:51;101195.50;;;36.62
48894;BMP280;34710;35.798;139.446;2022-11-25T01:49:27;101190.51;;;36.47
48894;BMP280;34710;35.798;139.446;2022-11-25T01:52:01;101191.55;;;36.33
48894;BMP280;34710;35.798;139.446;2022-11-25T01:54:34;101183.50;;;35.87
48894;BMP280;34710;35.798;139.446;2022-11-25T01:57:06;101179.48;;;35.70
48894;BMP280;34710;35.798;139.446;2022-11-25T01:59:40;101173.41;;;35.77
48894;BMP280;34710;35.798;139.446;2022-11-25T02:02:12;101170.12;;;34.78
48894;BMP280;34710;35.798;139.446;2022-11-25T02:04:42;101169.54;;;34.40
48894;BMP280;34710;35.798;139.446;2022-11-25T02:07:17;101166.13;;;33.66
48894;BMP280;34710;35.798;139.446;2022-11-25T02:09:47;101158.10;;;33.97
48894;BMP280;34710;35.798;139.446;2022-11-25T02:12:18;101158.39;;;33.45
48894;BMP280;34710;35.798;139.446;2022-11-25T02:14:50;101155.57;;;33.76
48894;BMP280;34710;35.798;139.446;2022-11-25T02:17:20;101151.32;;;33.73
48894;BMP280;34710;35.798;139.446;2022-11-25T02:19:59;101151.51;;;32.16
48894;BMP280;34710;35.798;139.446;2022-11-25T02:22:40;101150.10;;;31.42
48894;BMP280;34710;35.798;139.446;2022-11-25T02:25:16;101149.43;;;31.71
48894;BMP280;34710;35.798;139.446;2022-11-25T02:27:50;101142.88;;;32.71
48894;BMP280;34710;35.798;139.446;2022-11-25T02:30:20;101130.85;;;32.77
48894;BMP280;34710;35.798;139.446;2022-11-25T02:32:50;101124.24;;;33.10
48894;BMP280;34710;35.798;139.446;2022-11-25T02:35:26;101115.63;;;32.79
48894;BMP280;34710;35.798;139.446;2022-11-25T02:37:59;101113.83;;;32.39
48894;BMP280;34710;35.798;139.446;2022-11-25T02:40:30;101117.67;;;33.11
48894;BMP280;34710;35.798;139.446;2022-11-25T02:43:00;101111.10;;;33.56
48894;BMP280;34710;35.798;139.446;2022-11-25T02:45:40;101106.88;;;34.14
48894;BMP280;34710;35.798;139.446;2022-11-25T02:48:11;101102.46;;;34.35
48894;BMP280;34710;35.798;139.446;2022-11-25T02:50:40;101100.31;;;35.00
48894;BMP280;34710;35.798;139.446;2022-11-25T02:53:10;101095.90;;;34.99
48894;BMP280;34710;35.798;139.446;2022-11-25T02:55:39;101093.27;;;32.06
48894;BMP280;34710;35.798;139.446;2022-11-25T02:58:09;101085.71;;;33.53
48894;BMP280;34710;35.798;139.446;2022-11-25T03:00:38;101080.20;;;33.89
48894;BMP280;34710;35.798;139.446;2022-11-25T03:03:08;101077.27;;;33.45
48894;BMP280;34710;35.798;139.446;2022-11-25T03:05:38;101075.91;;;32.97
48894;BMP280;34710;35.798;139.446;2022-11-25T03:08:09;101074.72;;;34.13
48894;BMP280;34710;35.798;139.446;2022-11-25T03:10:39;101074.95;;;33.94
48894;BMP280;34710;35.798;139.446;2022-11-25T03:13:09;101071.32;;;34.28
48894;BMP280;34710;35.798;139.446;2022-11-25T03:15:39;101067.80;;;34.63
48894;BMP280;34710;35.798;139.446;2022-11-25T03:18:08;101062.90;;;35.09
48894;BMP280;34710;35.798;139.446;2022-11-25T03:20:38;101065.30;;;35.27
48894;BMP280;34710;35.798;139.446;2022-11-25T03:23:07;101057.99;;;35.23
48894;BMP280;34710;35.798;139.446;2022-11-25T03:25:36;101056.31;;;35.09
48894;BMP280;34710;35.798;139.446;2022-11-25T03:28:06;101049.03;;;33.89
48894;BMP280;34710;35.798;139.446;2022-11-25T03:30:35;101050.96;;;33.59
48894;BMP280;34710;35.798;139.446;2022-11-25T03:33:04;101046.76;;;34.57
48894;BMP280;34710;35.798;139.446;2022-11-25T03:35:34;101042.27;;;34.28
48894;BMP280;34710;35.798;139.446;2022-11-25T03:38:03;101045.30;;;34.22
48894;BMP280;34710;35.798;139.446;2022-11-25T03:40:33;101041.48;;;34.24
48894;BMP280;34710;35.798;139.446;2022-11-25T03:43:02;101045.19;;;34.30
48894;BMP280;34710;35.798;139.446;2022-11-25T03:45:31;101040.53;;;33.42
48894;BMP280;34710;35.798;139.446;2022-11-25T03:48:01;101040.70;;;33.72
48894;BMP280;34710;35.798;139.446;2022-11-25T03:50:30;101042.38;;;33.44
48894;BMP280;34710;35.798;139.446;2022-11-25T03:52:59;101046.18;;;32.44
48894;BMP280;34710;35.798;139.446;2022-11-25T03:55:29;101047.09;;;30.58
48894;BMP280;34710;35.798;139.446;2022-11-25T03:57:58;101046.26;;;31.07
48894;BMP280;34710;35.798;139.446;2022-11-25T04:00:28;101044.88;;;31.02
48894;BMP280;34710;35.798;139.446;2022-11-25T04:02:56;101036.83;;;28.12
48894;BMP280;34710;35.798;139.446;2022-11-25T04:05:26;101036.14;;;29.32
48894;BMP280;34710;35.798;139.446;2022-11-25T04:07:55;101032.84;;;29.84
48894;BMP280;34710;35.798;139.446;2022-11-25T04:10:25;101035.34;;;27.55
48894;BMP280;34710;35.798;139.446;2022-11-25T04:12:54;101031.09;;;28.14
48894;BMP280;34710;35.798;139.446;2022-11-25T04:15:23;101028.01;;;28.74
48894;BMP280;34710;35.798;139.446;2022-11-25T04:17:53;101034.79;;;25.71
48894;BMP280;34710;35.798;139.446;2022-11-25T04:20:22;101032.58;;;25.36
48894;BMP280;34710;35.798;139.446;2022-11-25T04:22:52;101031.65;;;24.03
48894;BMP280;34710;35.798;139.446;2022-11-25T04:25:22;101031.69;;;24.26
48894;BMP280;34710;35.798;139.446;2022-11-25T04:27:51;101030.00;;;23.98
48894;BMP280;34710;35.798;139.446;2022-11-25T04:30:20;101031.77;;;24.91
48894;BMP280;34710;35.798;139.446;2022-11-25T04:32:49;101025.70;;;26.63
48894;BMP280;34710;35.798;139.446;2022-11-25T04:35:19;101020.31;;;27.24
48894;BMP280;34710;35.798;139.446;2022-11-25T04:37:48;101016.76;;;27.54
48894;BMP280;34710;35.798;139.446;2022-11-25T04:40:18;101019.34;;;27.64
48894;BMP280;34710;35.798;139.446;2022-11-25T04:42:47;101021.73;;;25.17
48894;BMP280;34710;35.798;139.446;2022-11-25T04:45:18;101018.61;;;24.66
48894;BMP280;34710;35.798;139.446;2022-11-25T04:47:47;101020.02;;;24.94
48894;BMP280;34710;35.798;139.446;2022-11-25T04:50:19;101026.31;;;22.18
48894;BMP280;34710;35.798;139.446;2022-11-25T04:52:49;101025.84;;;22.91
48894;BMP280;34710;35.798;139.446;2022-11-25T04:55:18;101021.00;;;22.73
48894;BMP280;34710;35.798;139.446;2022-11-25T04:57:47;101016.90;;;23.60
48894;BMP280;34710;35.798;139.446;2022-11-25T05:00:18;101012.68;;;22.76
48894;BMP280;34710;35.798;139.446;2022-11-25T05:02:47;101010.21;;;24.16
48894;BMP280;34710;35.798;139.446;2022-11-25T05:05:17;101009.05;;;24.51
48894;BMP280;34710;35.798;139.446;2022-11-25T05:07:46;101007.65;;;24.68
48894;BMP280;34710;35.798;139.446;2022-11-25T05:10:15;101003.25;;;25.15
48894;BMP280;34710;35.798;139.446;2022-11-25T05:12:45;101003.08;;;24.46
48894;BMP280;34710;35.798;139.446;2022-11-25T05:15:14;101001.35;;;23.83
48894;BMP280;34710;35.798;139.446;2022-11-25T05:17:44;100998.98;;;23.87
48894;BMP280;34710;35.798;139.446;2022-11-25T05:20:13;100999.49;;;24.05
48894;BMP280;34710;35.798;139.446;2022-11-25T05:22:42;101000.80;;;22.61
48894;BMP280;34710;35.798;139.446;2022-11-25T05:25:11;100998.74;;;22.10
48894;BMP280;34710;35.798;139.446;2022-11-25T05:27:40;100994.09;;;23.39
48894;BMP280;34710;35.798;139.446;2022-11-25T05:30:10;100998.93;;;23.35
48894;BMP280;34710;35.798;139.446;2022-11-25T05:32:39;101000.30;;;23.62
48894;BMP280;34710;35.798;139.446;2022-11-25T05:35:10;101003.53;;;23.41
48894;BMP280;34710;35.798;139.446;2022-11-25T05:37:38;101008.94;;;22.16
48894;BMP280;34710;35.798;139.446;2022-11-25T05:40:09;101013.19;;;22.31
48894;BMP280;34710;35.798;139.446;2022-11-25T05:42:38;101013.51;;;22.52
48894;BMP280;34710;35.798;139.446;2022-11-25T05:45:09;101013.95;;;23.22
48894;BMP280;34710;35.798;139.446;2022-11-25T05:47:38;101017.02;;;21.95
48894;BMP280;34710;35.798;139.446;2022-11-25T05:50:08;101021.16;;;23.03
48894;BMP280;34710;35.798;139.446;2022-11-25T05:52:38;101019.49;;;22.92
48894;BMP280;34710;35.798;139.446;2022-11-25T05:55:07;101024.31;;;23.38
48894;BMP280;34710;35.798;139.446;2022-11-25T05:57:37;101023.31;;;22.69
48894;BMP280;34710;35.798;139.446;2022-11-25T06:00:06;101028.56;;;22.38
48894;BMP280;34710;35.798;139.446;2022-11-25T06:02:36;101034.37;;;21.35
48894;BMP280;34710;35.798;139.446;2022-11-25T06:05:06;101031.32;;;21.47
48894;BMP280;34710;35.798;139.446;2022-11-25T06:07:35;101036.25;;;21.05
48894;BMP280;34710;35.798;139.446;2022-11-25T06:10:05;101034.59;;;21.31
48894;BMP280;34710;35.798;139.446;2022-11-25T06:12:35;101033.10;;;20.72
48894;BMP280;34710;35.798;139.446;2022-11-25T06:15:05;101034.26;;;21.63
48894;BMP280;34710;35.798;139.446;2022-11-25T06:17:34;101034.18;;;21.72
48894;BMP280;34710;35.798;139.446;2022-11-25T06:20:05;101036.89;;;21.06
48894;BMP280;34710;35.798;139.446;2022-11-25T06:22:34;101031.16;;;21.56
48894;BMP280;34710;35.798;139.446;2022-11-25T06:25:04;101035.94;;;21.56
48894;BMP280;34710;35.798;139.446;2022-11-25T06:27:34;101045.03;;;21.35
48894;BMP280;34710;35.798;139.446;2022-11-25T06:30:03;101045.04;;;20.43
48894;BMP280;34710;35.798;139.446;2022-11-25T06:32:32;101044.60;;;20.32
48894;BMP280;34710;35.798;139.446;2022-11-25T06:35:00;101041.33;;;20.68
48894;BMP280;34710;35.798;139.446;2022-11-25T06:37:31;101039.32;;;19.24
48894;BMP280;34710;35.798;139.446;2022-11-25T06:39:59;101042.64;;;19.74
48894;BMP280;34710;35.798;139.446;2022-11-25T06:42:29;101042.42;;;19.09
48894;BMP280;34710;35.798;139.446;2022-11-25T06:44:58;101048.62;;;20.29
48894;BMP280;34710;35.798;139.446;2022-11-25T06:47:28;101052.15;;;19.59
48894;BMP280;34710;35.798;139.446;2022-11-25T06:49:56;101048.93;;;19.63
48894;BMP280;34710;35.798;139.446;2022-11-25T06:52:26;101053.28;;;19.92
48894;BMP280;34710;35.798;139.446;2022-11-25T06:54:57;101052.04;;;20.00
48894;BMP280;34710;35.798;139.446;2022-11-25T06:57:26;101055.75;;;18.75
48894;BMP280;34710;35.798;139.446;2022-11-25T06:59:56;101063.28;;;18.25
48894;BMP280;34710;35.798;139.446;2022-11-25T07:02:24;101062.61;;;19.21
48894;BMP280;34710;35.798;139.446;2022-11-25T07:04:54;101062.02;;;17.49
48894;BMP280;34710;35.798;139.446;2022-11-25T07:07:23;101063.63;;;16.79
48894;BMP280;34710;35.798;139.446;2022-11-25T07:09:51;101068.07;;;16.60
48894;BMP280;34710;35.798;139.446;2022-11-25T07:12:20;101074.17;;;17.01
48894;BMP280;34710;35.798;139.446;2022-11-25T07:14:51;101077.14;;;18.18
48894;BMP280;34710;35.798;139.446;2022-11-25T07:17:19;101080.96;;;18.13
48894;BMP280;34710;35.798;139.446;2022-11-25T07:19:49;101079.57;;;17.89
48894;BMP280;34710;35.798;139.446;2022-11-25T07:22:18;101087.23;;;17.46
48894;BMP280;34710;35.798;139.446;2022-11-25T07:24:48;101089.97;;;17.67
48894;BMP280;34710;35.798;139.446;2022-11-25T07:27:17;101092.14;;;16.58
48894;BMP280;34710;35.798;139.446;2022-11-25T07:29:47;101092.13;;;17.56
48894;BMP280;34710;35.798;139.446;2022-11-25T07:32:17;101090.99;;;17.15
48894;BMP280;34710;35.798;139.446;2022-11-25T07:34:48;101087.72;;;16.89
48894;BMP280;34710;35.798;139.446;2022-11-25T07:37:17;101088.26;;;17.62
48894;BMP280;34710;35.798;139.446;2022-11-25T07:39:46;101088.91;;;17.76
48894;BMP280;34710;35.798;139.446;2022-11-25T07:42:15;101088.87;;;17.06
48894;BMP280;34710;35.798;139.446;2022-11-25T07:44:44;101094.01;;;16.79
48894;BMP280;34710;35.798;139.446;2022-11-25T07:47:12;101095.10;;;15.27
48894;BMP280;34710;35.798;139.446;2022-11-25T07:49:42;101097.14;;;15.77
48894;BMP280;34710;35.798;139.446;2022-11-25T07:52:10;101099.15;;;16.63
48894;BMP280;34710;35.798;139.446;2022-11-25T07:54:40;101100.06;;;16.45
48894;BMP280;34710;35.798;139.446;2022-11-25T07:57:09;101101.26;;;17.01
48894;BMP280;34710;35.798;139.446;2022-11-25T07:59:38;101107.07;;;16.86
48894;BMP280;34710;35.798;139.446;2022-11-25T08:02:09;101109.25;;;16.40
48894;BMP280;34710;35.798;139.446;2022-11-25T08:04:39;101114.45;;;16.43
48894;BMP280;34710;35.798;139.446;2022-11-25T08:07:09;101120.07;;;16.47
48894;BMP280;34710;35.798;139.446;2022-11-25T08:09:38;101120.71;;;16.35
48894;BMP280;34710;35.798;139.446;2022-11-25T08:12:07;101125.92;;;16.83
48894;BMP280;34710;35.798;139.446;2022-11-25T08:14:37;101127.05;;;16.75
48894;BMP280;34710;35.798;139.446;2022-11-25T08:17:06;101130.21;;;16.91
48894;BMP280;34710;35.798;139.446;2022-11-25T08:19:35;101133.28;;;17.99
48894;BMP280;34710;35.798;139.446;2022-11-25T08:22:04;101134.26;;;18.34
48894;BMP280;34710;35.798;139.446;2022-11-25T08:24:33;101138.80;;;18.05
48894;BMP280;34710;35.798;139.446;2022-11-25T08:27:02;101138.31;;;18.44
48894;BMP280;34710;35.798;139.446;2022-11-25T08:29:32;101135.95;;;18.36
48894;BMP280;34710;35.798;139.446;2022-11-25T08:32:01;101134.58;;;18.37
48894;BMP280;34710;35.798;139.446;2022-11-25T08:34:30;101135.10;;;18.07
48894;BMP280;34710;35.798;139.446;2022-11-25T08:36:59;101135.93;;;17.88
48894;BMP280;34710;35.798;139.446;2022-11-25T08:39:28;101140.74;;;18.41
48894;BMP280;34710;35.798;139.446;2022-11-25T08:41:57;101144.64;;;18.75
48894;BMP280;34710;35.798;139.446;2022-11-25T08:44:27;101148.95;;;18.82
48894;BMP280;34710;35.798;139.446;2022-11-25T08:46:55;101151.90;;;18.59
48894;BMP280;34710;35.798;139.446;2022-11-25T08:49:24;101152.74;;;18.69
48894;BMP280;34710;35.798;139.446;2022-11-25T08:51:53;101154.39;;;18.73
48894;BMP280;34710;35.798;139.446;2022-11-25T08:54:22;101158.11;;;18.93
48894;BMP280;34710;35.798;139.446;2022-11-25T08:56:51;101157.48;;;18.95
48894;BMP280;34710;35.798;139.446;2022-11-25T08:59:20;101163.51;;;18.76
48894;BMP280;34710;35.798;139.446;2022-11-25T09:01:49;101169.60;;;18.51
48894;BMP280;34710;35.798;139.446;2022-11-25T09:04:18;101171.27;;;18.42
48894;BMP280;34710;35.798;139.446;2022-11-25T09:06:47;101167.66;;;18.67
48894;BMP280;34710;35.798;139.446;2022-11-25T09:09:16;101170.98;;;18.73
48894;BMP280;34710;35.798;139.446;2022-11-25T09:11:45;101171.75;;;18.48
48894;BMP280;34710;35.798;139.446;2022-11-25T09:14:14;101164.92;;;18.40
48894;BMP280;34710;35.798;139.446;2022-11-25T09:16:44;101167.29;;;17.89
48894;BMP280;34710;35.798;139.446;2022-11-25T09:19:13;101165.74;;;17.56
48894;BMP280;34710;35.798;139.446;2022-11-25T09:21:43;101162.89;;;17.65
48894;BMP280;34710;35.798;139.446;2022-11-25T09:24:12;101158.89;;;17.85
48894;BMP280;34710;35.798;139.446;2022-11-25T09:26:41;101158.79;;;18.06
48894;BMP280;34710;35.798;139.446;2022-11-25T09:29:11;101158.56;;;18.00
48894;BMP280;34710;35.798;139.446;2022-11-25T09:31:40;101158.64;;;17.89
48894;BMP280;34710;35.798;139.446;2022-11-25T09:34:10;101153.72;;;18.00
48894;BMP280;34710;35.798;139.446;2022-11-25T09:36:40;101152.96;;;18.13
48894;BMP280;34710;35.798;139.446;2022-11-25T09:39:09;101153.82;;;17.99
48894;BMP280;34710;35.798;139.446;2022-11-25T09:41:52;101157.94;;;18.08
48894;BMP280;34710;35.798;139.446;2022-11-25T09:44:33;101160.08;;;17.39
48894;BMP280;34710;35.798;139.446;2022-11-25T09:47:12;101163.82;;;17.01
48894;BMP280;34710;35.798;139.446;2022-11-25T09:50:00;101162.81;;;16.74
48894;BMP280;34710;35.798;139.446;2022-11-25T09:52:36;101162.83;;;15.25
48894;BMP280;34710;35.798;139.446;2022-11-25T09:55:12;101169.15;;;14.69
48894;BMP280;34710;35.798;139.446;2022-11-25T09:57:54;101165.40;;;14.70
48894;BMP280;34710;35.798;139.446;2022-11-25T10:00:25;101165.18;;;15.49
48894;BMP280;34710;35.798;139.446;2022-11-25T10:03:03;101164.55;;;16.01
48894;BMP280;34710;35.798;139.446;2022-11-25T10:05:37;101172.40;;;16.19
48894;BMP280;34710;35.798;139.446;2022-11-25T10:08:12;101176.48;;;14.71
48894;BMP280;34710;35.798;139.446;2022-11-25T10:10:46;101179.84;;;14.69
48894;BMP280;34710;35.798;139.446;2022-11-25T10:13:19;101175.90;;;13.32
48894;BMP280;34710;35.798;139.446;2022-11-25T10:15:50;101174.69;;;13.05
48894;BMP280;34710;35.798;139.446;2022-11-25T10:18:22;101176.58;;;13.52
48894;BMP280;34710;35.798;139.446;2022-11-25T10:20:54;101174.90;;;14.12
48894;BMP280;34710;35.798;139.446;2022-11-25T10:23:26;101179.92;;;13.65
48894;BMP280;34710;35.798;139.446;2022-11-25T10:26:00;101178.30;;;13.45
48894;BMP280;34710;35.798;139.446;2022-11-25T10:28:32;101181.65;;;13.47
48894;BMP280;34710;35.798;139.446;2022-11-25T10:31:05;101173.44;;;14.98
48894;BMP280;34710;35.798;139.446;2022-11-25T10:33:40;101175.88;;;15.34
48894;BMP280;34710;35.798;139.446;2022-11-25T10:36:17;101178.65;;;15.52
48894;BMP280;34710;35.798;139.446;2022-11-25T10:38:55;101179.53;;;15.83
48894;BMP280;34710;35.798;139.446;2022-11-25T10:41:27;101181.81;;;15.32
48894;BMP280;34710;35.798;139.446;2022-11-25T10:43:58;101177.91;;;14.86
48894;BMP280;34710;35.798;139.446;2022-11-25T10:46:31;101176.66;;;15.09
48894;BMP280;34710;35.798;139.446;2022-11-25T10:49:09;101177.36;;;15.18
48894;BMP280;34710;35.798;139.446;2022-11-25T10:51:45;101181.74;;;15.11
48894;BMP280;34710;35.798;139.446;2022-11-25T10:54:17;101178.76;;;15.15
48894;BMP280;34710;35.798;139.446;2022-11-25T10:56:49;101173.99;;;15.71
48894;BMP280;34710;35.798;139.446;2022-11-25T10:59:24;101173.81;;;16.29
48894;BMP280;34710;35.798;139.446;2022-11-25T11:02:13;101172.19;;;16.55
48894;BMP280;34710;35.798;139.446;2022-11-25T11:05:01;101171.96;;;16.50
48894;BMP280;34710;35.798;139.446;2022-11-25T11:07:32;101174.15;;;16.89
48894;BMP280;34710;35.798;139.446;2022-11-25T11:10:21;101173.32;;;16.81
48894;BMP280;34710;35.798;139.446;2022-11-25T11:12:56;101177.09;;;16.77
48894;BMP280;34710;35.798;139.446;2022-11-25T11:15:28;101175.32;;;16.75
48894;BMP280;34710;35.798;139.446;2022-11-25T11:17:58;101169.04;;;16.75
48894;BMP280;34710;35.798;139.446;2022-11-25T11:20:29;101161.80;;;16.80
48894;BMP280;34710;35.798;139.446;2022-11-25T11:23:03;101154.06;;;17.05
48894;BMP280;34710;35.798;139.446;2022-11-25T11:25:34;101159.68;;;16.77
48894;BMP280;34710;35.798;139.446;2022-11-25T11:28:23;101162.02;;;17.16
48894;BMP280;34710;35.798;139.446;2022-11-25T11:30:56;101160.46;;;16.60
48894;BMP280;34710;35.798;139.446;2022-11-25T11:33:33;101160.78;;;16.58
48894;BMP280;34710;35.798;139.446;2022-11-25T11:36:18;101159.41;;;16.96
48894;BMP280;34710;35.798;139.446;2022-11-25T11:38:55;101161.47;;;16.34
48894;BMP280;34710;35.798;139.446;2022-11-25T11:41:36;101161.54;;;16.30
48894;BMP280;34710;35.798;139.446;2022-11-25T11:44:15;101158.91;;;16.50
48894;BMP280;34710;35.798;139.446;2022-11-25T11:46:59;101162.66;;;16.69
48894;BMP280;34710;35.798;139.446;2022-11-25T11:49:45;101165.27;;;16.30
48894;BMP280;34710;35.798;139.446;2022-11-25T11:52:23;101169.10;;;16.28
48894;BMP280;34710;35.798;139.446;2022-11-25T11:55:02;101169.25;;;16.27
48894;BMP280;34710;35.798;139.446;2022-11-25T11:57:48;101166.71;;;16.20
48894;BMP280;34710;35.798;139.446;2022-11-25T12:00:23;101171.15;;;16.39
48894;BMP280;34710;35.798;139.446;2022-11-25T12:02:58;101170.08;;;16.22
48894;BMP280;34710;35.798;139.446;2022-11-25T12:05:32;101171.52;;;16.10
48894;BMP280;34710;35.798;139.446;2022-11-25T12:08:08;101166.86;;;15.71
48894;BMP280;34710;35.798;139.446;2022-11-25T12:10:41;101171.24;;;15.92
48894;BMP280;34710;35.798;139.446;2022-11-25T12:13:17;101178.25;;;15.79
48894;BMP280;34710;35.798;139.446;2022-11-25T12:15:52;101178.69;;;15.77
48894;BMP280;34710;35.798;139.446;2022-11-25T12:18:34;101184.07;;;15.71
48894;BMP280;34710;35.798;139.446;2022-11-25T12:21:11;101188.19;;;15.68
48894;BMP280;34710;35.798;139.446;2022-11-25T12:23:47;101185.11;;;15.60
48894;BMP280;34710;35.798;139.446;2022-11-25T12:26:25;101187.08;;;15.62
48894;BMP280;34710;35.798;139.446;2022-11-25T12:29:01;101185.33;;;15.60
48894;BMP280;34710;35.798;139.446;2022-11-25T12:31:38;101184.58;;;15.74
48894;BMP280;34710;35.798;139.446;2022-11-25T12:34:15;101187.71;;;15.49
48894;BMP280;34710;35.798;139.446;2022-11-25T12:36:46;101188.47;;;15.48
48894;BMP280;34710;35.798;139.446;2022-11-25T12:39:23;101187.15;;;15.36
48894;BMP280;34710;35.798;139.446;2022-11-25T12:42:00;101190.73;;;15.43
48894;BMP280;34710;35.798;139.446;2022-11-25T12:44:32;101193.44;;;15.16
48894;BMP280;34710;35.798;139.446;2022-11-25T12:47:03;101196.84;;;15.33
48894;BMP280;34710;35.798;139.446;2022-11-25T12:49:41;101199.84;;;15.04
48894;BMP280;34710;35.798;139.446;2022-11-25T12:52:27;101203.64;;;15.56
48894;BMP280;34710;35.798;139.446;2022-11-25T12:55:08;101203.43;;;14.99
48894;BMP280;34710;35.798;139.446;2022-11-25T12:58:41;101200.97;;;15.42
48894;BMP280;34710;35.798;139.446;2022-11-25T13:01:30;101197.57;;;14.91
48894;BMP280;34710;35.798;139.446;2022-11-25T13:04:23;101194.76;;;15.06
48894;BMP280;34710;35.798;139.446;2022-11-25T13:07:23;101196.98;;;15.51
48894;BMP280;34710;35.798;139.446;2022-11-25T13:10:24;101203.26;;;15.15
48894;BMP280;34710;35.798;139.446;2022-11-25T13:13:16;101202.58;;;15.02
48894;BMP280;34710;35.798;139.446;2022-11-25T13:15:52;101200.55;;;15.11
48894;BMP280;34710;35.798;139.446;2022-11-25T13:18:24;101193.37;;;15.22
48894;BMP280;34710;35.798;139.446;2022-11-25T13:20:55;101188.27;;;15.27
48894;BMP280;34710;35.798;139.446;2022-11-25T13:23:45;101189.48;;;15.00
48894;BMP280;34710;35.798;139.446;2022-11-25T13:26:48;101198.22;;;15.52
48894;BMP280;34710;35.798;139.446;2022-11-25T13:29:54;101207.32;;;15.47
48894;BMP280;34710;35.798;139.446;2022-11-25T13:32:30;101207.37;;;15.15
48894;BMP280;34710;35.798;139.446;2022-11-25T13:35:35;101205.46;;;15.65
48894;BMP280;34710;35.798;139.446;2022-11-25T13:38:56;101199.18;;;15.61
48894;BMP280;34710;35.798;139.446;2022-11-25T13:41:40;101195.78;;;14.96
48894;BMP280;34710;35.798;139.446;2022-11-25T13:44:19;101192.89;;;14.98
48894;BMP280;34710;35.798;139.446;2022-11-25T13:46:50;101188.02;;;15.01
48894;BMP280;34710;35.798;139.446;2022-11-25T13:49:30;101186.10;;;14.97
48894;BMP280;34710;35.798;139.446;2022-11-25T13:52:05;101184.52;;;15.00
48894;BMP280;34710;35.798;139.446;2022-11-25T13:54:52;101183.56;;;14.70
48894;BMP280;34710;35.798;139.446;2022-11-25T13:57:27;101183.50;;;14.73
48894;BMP280;34710;35.798;139.446;2022-11-25T14:00:00;101190.63;;;14.99
48894;BMP280;34710;35.798;139.446;2022-11-25T14:02:37;101197.31;;;15.04